map of IWD home
IWD - Airport
Location
City:  Ironwood, Michigan, United States
Name:Gogebic-Iron County Airport
ICAO:KIWD
IATA:IWD
FAA LID:IWD

Details
Type:Airport (Part 139 Class I)
Use:Public/Civil
Latitude:4631'39"N (46.527472)
Longitude:9007'53"W (-90.131388)
Datum:WGS 1984
Elevation:1230 ft (375 m)
Variation:2.66W (WMM2015 magnetic declination)
-0.05 annual change
Runways:1
Longest:6502 × 120 ft (1982 × 36.5 m), paved

Time
Time Zone:UTC-6 (DST-5)
Local Time:

Weather
METAR:KIWD 171256Z AUTO 18003KT 10SM OVC007 M06/M07 A3011 RMK AO2 SLP219 T10561067 FZRANO PNO $
TAF:KIWD 171140Z 1712/1812 17005KT P6SM OVC010
FM172100 22006KT P6SM OVC010
FM180300 23006KT P6SM SCT020

Related Locations
Nearby:
Farthest:MQZ: 10857 mi / 17472 km
Margaret River [Margaret River Airport], WA, AU

Find:

   beyond  
but within

Other Information
Maps:
NOTAMs:
Links:
Sources:

  
flag of United States
flag of Michigan
  

Sectional Chart

Flight Planning
at skyvector.com

Satellite Image

Google Maps Satellite view

 

Copyright © 2004-2017 Karl L. Swartz. All rights reserved.
The Great Circle Mapper name and logo are trademarks of the Great Circle Mapper.
All other trademarks mentioned herein belong to their respective owners.
Please see credits for attibutions and further copyright information.

  Follow gcmap on Facebook Follow gcmap on Twitter Follow gcmap on Google+ GCmap on LinkedIn

hCard Microformat

Geo Microformat